sensor_id;sensor_type;location;lat;lon;timestamp;P1;durP1;ratioP1;P2;durP2;ratioP2
20671;SDS011;10495;50.922;4.760;2022-09-06T00:01:35;7.97;;;6.20;;
20671;SDS011;10495;50.922;4.760;2022-09-06T00:04:01;6.00;;;4.90;;
20671;SDS011;10495;50.922;4.760;2022-09-06T00:06:27;5.47;;;4.97;;
20671;SDS011;10495;50.922;4.760;2022-09-06T00:08:53;6.13;;;5.00;;
20671;SDS011;10495;50.922;4.760;2022-09-06T00:11:18;6.23;;;4.87;;
20671;SDS011;10495;50.922;4.760;2022-09-06T00:13:44;6.27;;;4.97;;
20671;SDS011;10495;50.922;4.760;2022-09-06T00:16:12;7.07;;;5.37;;
20671;SDS011;10495;50.922;4.760;2022-09-06T00:18:47;10.23;;;5.60;;
20671;SDS011;10495;50.922;4.760;2022-09-06T00:21:14;6.33;;;5.27;;
20671;SDS011;10495;50.922;4.760;2022-09-06T00:23:44;9.73;;;5.97;;
20671;SDS011;10495;50.922;4.760;2022-09-06T00:26:10;7.40;;;6.03;;
20671;SDS011;10495;50.922;4.760;2022-09-06T00:28:36;7.27;;;5.70;;
20671;SDS011;10495;50.922;4.760;2022-09-06T00:31:15;6.67;;;5.50;;
20671;SDS011;10495;50.922;4.760;2022-09-06T00:33:43;7.60;;;6.33;;
20671;SDS011;10495;50.922;4.760;2022-09-06T00:36:10;12.93;;;6.80;;
20671;SDS011;10495;50.922;4.760;2022-09-06T00:38:36;8.17;;;6.07;;
20671;SDS011;10495;50.922;4.760;2022-09-06T00:41:03;7.10;;;5.70;;
20671;SDS011;10495;50.922;4.760;2022-09-06T00:43:30;6.80;;;6.10;;
20671;SDS011;10495;50.922;4.760;2022-09-06T00:45:56;6.70;;;5.50;;
20671;SDS011;10495;50.922;4.760;2022-09-06T00:48:23;8.47;;;5.67;;
20671;SDS011;10495;50.922;4.760;2022-09-06T00:50:51;6.73;;;5.10;;
20671;SDS011;10495;50.922;4.760;2022-09-06T00:53:21;5.97;;;4.97;;
20671;SDS011;10495;50.922;4.760;2022-09-06T00:55:47;8.10;;;4.70;;
20671;SDS011;10495;50.922;4.760;2022-09-06T00:58:13;7.50;;;5.50;;
20671;SDS011;10495;50.922;4.760;2022-09-06T01:00:39;6.97;;;5.00;;
20671;SDS011;10495;50.922;4.760;2022-09-06T01:03:05;7.37;;;4.60;;
20671;SDS011;10495;50.922;4.760;2022-09-06T01:05:54;8.70;;;4.97;;
20671;SDS011;10495;50.922;4.760;2022-09-06T01:17:36;6.67;;;5.27;;
20671;SDS011;10495;50.922;4.760;2022-09-06T01:31:07;6.00;;;5.40;;
20671;SDS011;10495;50.922;4.760;2022-09-06T01:36:43;7.23;;;5.60;;
20671;SDS011;10495;50.922;4.760;2022-09-06T01:39:20;6.80;;;5.67;;
20671;SDS011;10495;50.922;4.760;2022-09-06T01:41:47;6.33;;;5.60;;
20671;SDS011;10495;50.922;4.760;2022-09-06T01:44:13;8.17;;;5.10;;
20671;SDS011;10495;50.922;4.760;2022-09-06T01:49:43;8.97;;;6.03;;
20671;SDS011;10495;50.922;4.760;2022-09-06T02:01:43;8.70;;;6.83;;
20671;SDS011;10495;50.922;4.760;2022-09-06T02:04:28;8.33;;;6.53;;
20671;SDS011;10495;50.922;4.760;2022-09-06T02:07:07;9.77;;;7.17;;
20671;SDS011;10495;50.922;4.760;2022-09-06T02:09:39;7.33;;;6.37;;
20671;SDS011;10495;50.922;4.760;2022-09-06T02:12:07;7.97;;;5.90;;
20671;SDS011;10495;50.922;4.760;2022-09-06T02:14:39;6.47;;;5.87;;
20671;SDS011;10495;50.922;4.760;2022-09-06T02:17:08;7.33;;;6.17;;
20671;SDS011;10495;50.922;4.760;2022-09-06T02:19:38;6.37;;;5.73;;
20671;SDS011;10495;50.922;4.760;2022-09-06T02:22:18;6.03;;;5.43;;
20671;SDS011;10495;50.922;4.760;2022-09-06T02:24:47;8.77;;;5.83;;
20671;SDS011;10495;50.922;4.760;2022-09-06T02:27:15;8.80;;;5.57;;
20671;SDS011;10495;50.922;4.760;2022-09-06T02:29:40;7.03;;;5.77;;
20671;SDS011;10495;50.922;4.760;2022-09-06T02:32:07;8.57;;;5.50;;
20671;SDS011;10495;50.922;4.760;2022-09-06T02:34:43;5.60;;;5.03;;
20671;SDS011;10495;50.922;4.760;2022-09-06T02:37:10;6.47;;;5.60;;
20671;SDS011;10495;50.922;4.760;2022-09-06T02:39:37;8.13;;;5.67;;
20671;SDS011;10495;50.922;4.760;2022-09-06T02:42:03;7.47;;;4.93;;
20671;SDS011;10495;50.922;4.760;2022-09-06T02:44:30;9.80;;;6.37;;
20671;SDS011;10495;50.922;4.760;2022-09-06T02:46:56;6.13;;;5.53;;
20671;SDS011;10495;50.922;4.760;2022-09-06T02:49:22;8.37;;;5.70;;
20671;SDS011;10495;50.922;4.760;2022-09-06T02:51:48;6.93;;;5.80;;
20671;SDS011;10495;50.922;4.760;2022-09-06T02:54:14;6.80;;;5.40;;
20671;SDS011;10495;50.922;4.760;2022-09-06T02:56:40;7.70;;;6.13;;
20671;SDS011;10495;50.922;4.760;2022-09-06T02:59:05;11.43;;;6.90;;
20671;SDS011;10495;50.922;4.760;2022-09-06T03:01:31;8.57;;;6.30;;
20671;SDS011;10495;50.922;4.760;2022-09-06T03:03:57;12.00;;;7.23;;
20671;SDS011;10495;50.922;4.760;2022-09-06T03:06:23;8.30;;;6.43;;
20671;SDS011;10495;50.922;4.760;2022-09-06T03:08:48;10.13;;;6.80;;
20671;SDS011;10495;50.922;4.760;2022-09-06T03:11:15;8.20;;;6.40;;
20671;SDS011;10495;50.922;4.760;2022-09-06T03:13:40;9.17;;;7.70;;
20671;SDS011;10495;50.922;4.760;2022-09-06T03:16:06;11.10;;;7.73;;
20671;SDS011;10495;50.922;4.760;2022-09-06T03:18:32;9.70;;;7.90;;
20671;SDS011;10495;50.922;4.760;2022-09-06T03:20:58;12.13;;;8.20;;
20671;SDS011;10495;50.922;4.760;2022-09-06T03:23:24;12.10;;;8.93;;
20671;SDS011;10495;50.922;4.760;2022-09-06T03:25:52;15.70;;;8.60;;
20671;SDS011;10495;50.922;4.760;2022-09-06T03:28:17;14.70;;;10.33;;
20671;SDS011;10495;50.922;4.760;2022-09-06T03:30:44;11.43;;;9.60;;
20671;SDS011;10495;50.922;4.760;2022-09-06T03:33:11;14.73;;;9.43;;
20671;SDS011;10495;50.922;4.760;2022-09-06T03:35:37;14.13;;;11.53;;
20671;SDS011;10495;50.922;4.760;2022-09-06T03:38:03;16.00;;;11.17;;
20671;SDS011;10495;50.922;4.760;2022-09-06T03:40:29;13.90;;;10.53;;
20671;SDS011;10495;50.922;4.760;2022-09-06T03:42:54;13.93;;;11.33;;
20671;SDS011;10495;50.922;4.760;2022-09-06T03:45:20;13.80;;;10.23;;
20671;SDS011;10495;50.922;4.760;2022-09-06T03:47:46;17.27;;;12.03;;
20671;SDS011;10495;50.922;4.760;2022-09-06T03:50:11;17.60;;;11.67;;
20671;SDS011;10495;50.922;4.760;2022-09-06T03:52:37;15.13;;;11.80;;
20671;SDS011;10495;50.922;4.760;2022-09-06T03:55:03;18.87;;;12.57;;
20671;SDS011;10495;50.922;4.760;2022-09-06T03:57:29;14.33;;;12.27;;
20671;SDS011;10495;50.922;4.760;2022-09-06T03:59:55;13.30;;;9.53;;
20671;SDS011;10495;50.922;4.760;2022-09-06T04:02:20;9.07;;;7.47;;
20671;SDS011;10495;50.922;4.760;2022-09-06T04:04:46;15.30;;;9.37;;
20671;SDS011;10495;50.922;4.760;2022-09-06T04:07:11;12.67;;;9.33;;
20671;SDS011;10495;50.922;4.760;2022-09-06T04:09:37;9.60;;;7.87;;
20671;SDS011;10495;50.922;4.760;2022-09-06T04:12:03;13.83;;;9.60;;
20671;SDS011;10495;50.922;4.760;2022-09-06T04:14:28;9.87;;;7.60;;
20671;SDS011;10495;50.922;4.760;2022-09-06T04:16:54;12.27;;;7.57;;
20671;SDS011;10495;50.922;4.760;2022-09-06T04:19:19;10.83;;;8.10;;
20671;SDS011;10495;50.922;4.760;2022-09-06T04:21:45;8.57;;;6.47;;
20671;SDS011;10495;50.922;4.760;2022-09-06T04:24:11;10.43;;;9.37;;
20671;SDS011;10495;50.922;4.760;2022-09-06T04:26:37;14.00;;;10.50;;
20671;SDS011;10495;50.922;4.760;2022-09-06T04:29:02;13.00;;;10.50;;
20671;SDS011;10495;50.922;4.760;2022-09-06T04:31:28;14.67;;;11.20;;
20671;SDS011;10495;50.922;4.760;2022-09-06T04:33:54;14.10;;;10.77;;
20671;SDS011;10495;50.922;4.760;2022-09-06T04:36:19;12.27;;;10.30;;
20671;SDS011;10495;50.922;4.760;2022-09-06T04:38:45;15.33;;;10.33;;
20671;SDS011;10495;50.922;4.760;2022-09-06T04:41:12;13.93;;;10.17;;
20671;SDS011;10495;50.922;4.760;2022-09-06T04:43:39;11.63;;;10.03;;
20671;SDS011;10495;50.922;4.760;2022-09-06T04:46:05;10.90;;;7.90;;
20671;SDS011;10495;50.922;4.760;2022-09-06T04:48:45;12.00;;;9.43;;
20671;SDS011;10495;50.922;4.760;2022-09-06T04:51:14;12.13;;;8.73;;
20671;SDS011;10495;50.922;4.760;2022-09-06T04:53:40;11.07;;;8.50;;
20671;SDS011;10495;50.922;4.760;2022-09-06T04:56:05;12.13;;;8.40;;
20671;SDS011;10495;50.922;4.760;2022-09-06T04:58:31;12.70;;;7.80;;
20671;SDS011;10495;50.922;4.760;2022-09-06T05:00:56;9.93;;;8.03;;
20671;SDS011;10495;50.922;4.760;2022-09-06T05:03:22;10.70;;;7.17;;
20671;SDS011;10495;50.922;4.760;2022-09-06T05:05:48;11.20;;;7.63;;
20671;SDS011;10495;50.922;4.760;2022-09-06T05:08:13;7.47;;;6.40;;
20671;SDS011;10495;50.922;4.760;2022-09-06T05:10:39;7.37;;;6.53;;
20671;SDS011;10495;50.922;4.760;2022-09-06T05:13:04;9.07;;;6.60;;
20671;SDS011;10495;50.922;4.760;2022-09-06T05:15:30;10.17;;;6.73;;
20671;SDS011;10495;50.922;4.760;2022-09-06T05:18:02;8.10;;;6.30;;
20671;SDS011;10495;50.922;4.760;2022-09-06T05:20:28;7.50;;;6.10;;
20671;SDS011;10495;50.922;4.760;2022-09-06T05:22:55;7.40;;;6.60;;
20671;SDS011;10495;50.922;4.760;2022-09-06T05:25:20;7.00;;;6.17;;
20671;SDS011;10495;50.922;4.760;2022-09-06T05:27:46;7.07;;;6.23;;
20671;SDS011;10495;50.922;4.760;2022-09-06T05:30:12;10.80;;;7.60;;
20671;SDS011;10495;50.922;4.760;2022-09-06T05:32:39;9.17;;;7.47;;
20671;SDS011;10495;50.922;4.760;2022-09-06T05:35:05;8.57;;;7.63;;
20671;SDS011;10495;50.922;4.760;2022-09-06T05:37:30;10.43;;;8.60;;
20671;SDS011;10495;50.922;4.760;2022-09-06T05:39:56;9.33;;;8.17;;
20671;SDS011;10495;50.922;4.760;2022-09-06T05:42:24;7.97;;;6.50;;
20671;SDS011;10495;50.922;4.760;2022-09-06T05:44:49;10.77;;;7.30;;
20671;SDS011;10495;50.922;4.760;2022-09-06T05:47:15;11.67;;;7.30;;
20671;SDS011;10495;50.922;4.760;2022-09-06T05:49:40;13.40;;;7.23;;
20671;SDS011;10495;50.922;4.760;2022-09-06T05:52:06;7.07;;;6.37;;
20671;SDS011;10495;50.922;4.760;2022-09-06T05:54:32;8.73;;;6.80;;
20671;SDS011;10495;50.922;4.760;2022-09-06T05:56:57;11.73;;;7.23;;
20671;SDS011;10495;50.922;4.760;2022-09-06T05:59:23;8.73;;;6.80;;
20671;SDS011;10495;50.922;4.760;2022-09-06T06:01:49;13.17;;;6.87;;
20671;SDS011;10495;50.922;4.760;2022-09-06T06:04:17;6.93;;;6.30;;
20671;SDS011;10495;50.922;4.760;2022-09-06T06:06:43;10.03;;;6.07;;
20671;SDS011;10495;50.922;4.760;2022-09-06T06:09:10;10.10;;;6.43;;
20671;SDS011;10495;50.922;4.760;2022-09-06T06:11:36;12.00;;;6.00;;
20671;SDS011;10495;50.922;4.760;2022-09-06T06:14:02;6.03;;;5.40;;
20671;SDS011;10495;50.922;4.760;2022-09-06T06:16:28;7.33;;;5.37;;
20671;SDS011;10495;50.922;4.760;2022-09-06T06:18:54;6.60;;;4.37;;
20671;SDS011;10495;50.922;4.760;2022-09-06T06:21:24;8.30;;;4.80;;
20671;SDS011;10495;50.922;4.760;2022-09-06T06:23:53;6.77;;;4.50;;
20671;SDS011;10495;50.922;4.760;2022-09-06T06:26:20;5.77;;;4.27;;
20671;SDS011;10495;50.922;4.760;2022-09-06T06:28:46;6.10;;;4.30;;
20671;SDS011;10495;50.922;4.760;2022-09-06T06:31:13;7.43;;;4.53;;
20671;SDS011;10495;50.922;4.760;2022-09-06T06:33:39;4.13;;;3.43;;
20671;SDS011;10495;50.922;4.760;2022-09-06T06:36:26;3.87;;;3.47;;
20671;SDS011;10495;50.922;4.760;2022-09-06T06:38:54;6.20;;;3.38;;
20671;SDS011;10495;50.922;4.760;2022-09-06T06:41:21;5.10;;;2.93;;
20671;SDS011;10495;50.922;4.760;2022-09-06T06:46:18;4.32;;;3.17;;
20671;SDS011;10495;50.922;4.760;2022-09-06T06:48:45;4.72;;;3.33;;
20671;SDS011;10495;50.922;4.760;2022-09-06T06:51:11;4.73;;;2.77;;
20671;SDS011;10495;50.922;4.760;2022-09-06T06:53:42;4.30;;;3.00;;
20671;SDS011;10495;50.922;4.760;2022-09-06T06:56:19;3.05;;;2.65;;
20671;SDS011;10495;50.922;4.760;2022-09-06T06:58:48;4.43;;;2.75;;
20671;SDS011;10495;50.922;4.760;2022-09-06T07:01:17;4.25;;;2.72;;
20671;SDS011;10495;50.922;4.760;2022-09-06T07:03:44;2.65;;;2.30;;
20671;SDS011;10495;50.922;4.760;2022-09-06T07:06:10;2.30;;;1.95;;
20671;SDS011;10495;50.922;4.760;2022-09-06T07:08:37;5.63;;;2.30;;
20671;SDS011;10495;50.922;4.760;2022-09-06T07:11:03;5.32;;;2.55;;
20671;SDS011;10495;50.922;4.760;2022-09-06T07:13:30;5.10;;;2.60;;
20671;SDS011;10495;50.922;4.760;2022-09-06T07:16:14;3.40;;;2.15;;
20671;SDS011;10495;50.922;4.760;2022-09-06T07:18:42;2.65;;;2.17;;
20671;SDS011;10495;50.922;4.760;2022-09-06T07:21:10;4.35;;;2.33;;
20671;SDS011;10495;50.922;4.760;2022-09-06T07:23:37;4.03;;;1.90;;
20671;SDS011;10495;50.922;4.760;2022-09-06T07:26:03;3.53;;;2.00;;
20671;SDS011;10495;50.922;4.760;2022-09-06T07:28:29;2.10;;;1.90;;
20671;SDS011;10495;50.922;4.760;2022-09-06T07:30:55;3.53;;;1.98;;
20671;SDS011;10495;50.922;4.760;2022-09-06T07:33:22;3.45;;;1.98;;
20671;SDS011;10495;50.922;4.760;2022-09-06T07:35:57;4.60;;;1.83;;
20671;SDS011;10495;50.922;4.760;2022-09-06T07:38:24;3.17;;;1.85;;
20671;SDS011;10495;50.922;4.760;2022-09-06T07:40:53;2.95;;;2.08;;
20671;SDS011;10495;50.922;4.760;2022-09-06T07:43:20;5.47;;;2.70;;
20671;SDS011;10495;50.922;4.760;2022-09-06T07:45:46;4.50;;;2.20;;
20671;SDS011;10495;50.922;4.760;2022-09-06T07:48:12;1.88;;;1.67;;
20671;SDS011;10495;50.922;4.760;2022-09-06T07:50:37;5.13;;;2.20;;
20671;SDS011;10495;50.922;4.760;2022-09-06T07:53:06;2.47;;;1.92;;
20671;SDS011;10495;50.922;4.760;2022-09-06T07:55:32;5.78;;;1.90;;
20671;SDS011;10495;50.922;4.760;2022-09-06T07:57:58;5.22;;;1.95;;
20671;SDS011;10495;50.922;4.760;2022-09-06T08:00:23;2.45;;;1.88;;
20671;SDS011;10495;50.922;4.760;2022-09-06T08:02:49;1.67;;;1.58;;
20671;SDS011;10495;50.922;4.760;2022-09-06T08:05:14;3.72;;;1.80;;
20671;SDS011;10495;50.922;4.760;2022-09-06T08:07:40;4.03;;;1.92;;
20671;SDS011;10495;50.922;4.760;2022-09-06T08:10:06;2.65;;;1.80;;
20671;SDS011;10495;50.922;4.760;2022-09-06T08:12:32;2.25;;;1.48;;
20671;SDS011;10495;50.922;4.760;2022-09-06T08:14:57;4.18;;;2.05;;
20671;SDS011;10495;50.922;4.760;2022-09-06T08:17:23;2.58;;;2.08;;
20671;SDS011;10495;50.922;4.760;2022-09-06T08:19:48;2.70;;;1.65;;
20671;SDS011;10495;50.922;4.760;2022-09-06T08:22:14;2.35;;;1.80;;
20671;SDS011;10495;50.922;4.760;2022-09-06T08:24:39;3.40;;;1.83;;
20671;SDS011;10495;50.922;4.760;2022-09-06T08:27:05;2.60;;;1.60;;
20671;SDS011;10495;50.922;4.760;2022-09-06T08:29:34;2.25;;;1.80;;
20671;SDS011;10495;50.922;4.760;2022-09-06T08:32:00;2.00;;;1.67;;
20671;SDS011;10495;50.922;4.760;2022-09-06T08:34:26;2.78;;;2.10;;
20671;SDS011;10495;50.922;4.760;2022-09-06T08:36:52;3.13;;;1.60;;
20671;SDS011;10495;50.922;4.760;2022-09-06T08:39:17;2.65;;;2.08;;
20671;SDS011;10495;50.922;4.760;2022-09-06T08:41:59;8.32;;;2.53;;
20671;SDS011;10495;50.922;4.760;2022-09-06T08:44:35;3.67;;;1.90;;
20671;SDS011;10495;50.922;4.760;2022-09-06T08:47:19;2.40;;;1.85;;
20671;SDS011;10495;50.922;4.760;2022-09-06T08:49:47;3.67;;;2.20;;
20671;SDS011;10495;50.922;4.760;2022-09-06T09:00:28;2.75;;;2.03;;
20671;SDS011;10495;50.922;4.760;2022-09-06T09:03:13;3.80;;;2.50;;
20671;SDS011;10495;50.922;4.760;2022-09-06T09:05:42;4.70;;;2.25;;
20671;SDS011;10495;50.922;4.760;2022-09-06T09:11:04;4.57;;;1.92;;
20671;SDS011;10495;50.922;4.760;2022-09-06T09:16:13;5.50;;;2.10;;
20671;SDS011;10495;50.922;4.760;2022-09-06T09:18:40;4.32;;;2.00;;
20671;SDS011;10495;50.922;4.760;2022-09-06T09:21:08;5.30;;;2.67;;
20671;SDS011;10495;50.922;4.760;2022-09-06T09:23:35;3.33;;;2.53;;
20671;SDS011;10495;50.922;4.760;2022-09-06T09:26:01;3.58;;;2.50;;
20671;SDS011;10495;50.922;4.760;2022-09-06T09:28:29;7.65;;;2.67;;
20671;SDS011;10495;50.922;4.760;2022-09-06T09:30:55;5.85;;;2.40;;
20671;SDS011;10495;50.922;4.760;2022-09-06T09:33:27;5.50;;;2.58;;
20671;SDS011;10495;50.922;4.760;2022-09-06T09:35:55;4.50;;;2.17;;
20671;SDS011;10495;50.922;4.760;2022-09-06T09:38:30;4.50;;;2.83;;
20671;SDS011;10495;50.922;4.760;2022-09-06T09:41:04;3.13;;;2.33;;
20671;SDS011;10495;50.922;4.760;2022-09-06T09:43:35;2.25;;;2.00;;
20671;SDS011;10495;50.922;4.760;2022-09-06T09:51:35;4.57;;;2.47;;
20671;SDS011;10495;50.922;4.760;2022-09-06T09:54:04;2.63;;;2.00;;
20671;SDS011;10495;50.922;4.760;2022-09-06T10:01:43;5.45;;;2.25;;
20671;SDS011;10495;50.922;4.760;2022-09-06T10:04:09;3.50;;;2.35;;
20671;SDS011;10495;50.922;4.760;2022-09-06T10:06:36;5.40;;;2.28;;
20671;SDS011;10495;50.922;4.760;2022-09-06T10:09:13;4.45;;;2.20;;
20671;SDS011;10495;50.922;4.760;2022-09-06T10:11:52;2.65;;;2.15;;
20671;SDS011;10495;50.922;4.760;2022-09-06T10:14:23;5.20;;;2.38;;
20671;SDS011;10495;50.922;4.760;2022-09-06T10:16:51;2.83;;;2.30;;
20671;SDS011;10495;50.922;4.760;2022-09-06T10:19:21;4.60;;;2.85;;
20671;SDS011;10495;50.922;4.760;2022-09-06T10:22:28;5.47;;;2.17;;
20671;SDS011;10495;50.922;4.760;2022-09-06T10:28:10;4.32;;;3.05;;
20671;SDS011;10495;50.922;4.760;2022-09-06T10:30:53;3.20;;;2.47;;
20671;SDS011;10495;50.922;4.760;2022-09-06T10:33:26;5.57;;;2.65;;
20671;SDS011;10495;50.922;4.760;2022-09-06T10:36:07;3.10;;;2.47;;
20671;SDS011;10495;50.922;4.760;2022-09-06T10:46:48;4.18;;;2.60;;
20671;SDS011;10495;50.922;4.760;2022-09-06T10:49:19;6.03;;;2.55;;
20671;SDS011;10495;50.922;4.760;2022-09-06T10:51:47;2.55;;;2.35;;
20671;SDS011;10495;50.922;4.760;2022-09-06T10:54:20;4.60;;;2.80;;
20671;SDS011;10495;50.922;4.760;2022-09-06T10:59:56;4.13;;;2.97;;
20671;SDS011;10495;50.922;4.760;2022-09-06T11:02:34;5.18;;;3.33;;
20671;SDS011;10495;50.922;4.760;2022-09-06T11:05:16;6.22;;;3.42;;
20671;SDS011;10495;50.922;4.760;2022-09-06T11:07:48;4.45;;;3.42;;
20671;SDS011;10495;50.922;4.760;2022-09-06T11:13:02;4.88;;;3.30;;
20671;SDS011;10495;50.922;4.760;2022-09-06T11:24:13;4.93;;;3.25;;
20671;SDS011;10495;50.922;4.760;2022-09-06T11:29:25;4.80;;;2.90;;
20671;SDS011;10495;50.922;4.760;2022-09-06T11:31:53;2.80;;;2.60;;
20671;SDS011;10495;50.922;4.760;2022-09-06T11:34:26;4.05;;;2.78;;
20671;SDS011;10495;50.922;4.760;2022-09-06T11:37:01;3.00;;;2.58;;
20671;SDS011;10495;50.922;4.760;2022-09-06T11:39:35;6.63;;;2.72;;
20671;SDS011;10495;50.922;4.760;2022-09-06T11:42:06;5.68;;;3.35;;
20671;SDS011;10495;50.922;4.760;2022-09-06T11:45:12;3.45;;;2.72;;
20671;SDS011;10495;50.922;4.760;2022-09-06T11:47:40;6.20;;;3.00;;
20671;SDS011;10495;50.922;4.760;2022-09-06T11:50:20;4.90;;;2.55;;
20671;SDS011;10495;50.922;4.760;2022-09-06T11:55:30;6.90;;;3.10;;
20671;SDS011;10495;50.922;4.760;2022-09-06T11:58:18;3.67;;;2.67;;
20671;SDS011;10495;50.922;4.760;2022-09-06T12:06:13;3.80;;;2.50;;
20671;SDS011;10495;50.922;4.760;2022-09-06T12:08:47;4.90;;;2.38;;
20671;SDS011;10495;50.922;4.760;2022-09-06T12:24:55;7.45;;;2.50;;
20671;SDS011;10495;50.922;4.760;2022-09-06T12:28:11;4.68;;;2.30;;
20671;SDS011;10495;50.922;4.760;2022-09-06T12:30:37;4.45;;;2.55;;
20671;SDS011;10495;50.922;4.760;2022-09-06T12:33:16;3.20;;;1.80;;
20671;SDS011;10495;50.922;4.760;2022-09-06T12:36:12;5.13;;;2.38;;
20671;SDS011;10495;50.922;4.760;2022-09-06T12:38:52;2.95;;;2.10;;
20671;SDS011;10495;50.922;4.760;2022-09-06T12:41:19;2.03;;;1.83;;
20671;SDS011;10495;50.922;4.760;2022-09-06T12:43:46;3.65;;;1.90;;
20671;SDS011;10495;50.922;4.760;2022-09-06T12:46:12;1.95;;;1.77;;
20671;SDS011;10495;50.922;4.760;2022-09-06T12:48:38;4.57;;;1.90;;
20671;SDS011;10495;50.922;4.760;2022-09-06T12:51:17;3.30;;;1.83;;
20671;SDS011;10495;50.922;4.760;2022-09-06T12:53:51;2.58;;;2.10;;
20671;SDS011;10495;50.922;4.760;2022-09-06T12:56:18;3.15;;;2.28;;
20671;SDS011;10495;50.922;4.760;2022-09-06T12:58:45;3.95;;;2.03;;
20671;SDS011;10495;50.922;4.760;2022-09-06T13:04:02;4.20;;;2.30;;
20671;SDS011;10495;50.922;4.760;2022-09-06T13:06:34;2.15;;;1.90;;
20671;SDS011;10495;50.922;4.760;2022-09-06T13:09:06;3.10;;;1.92;;
20671;SDS011;10495;50.922;4.760;2022-09-06T13:11:36;6.00;;;2.13;;
20671;SDS011;10495;50.922;4.760;2022-09-06T13:14:09;3.88;;;1.80;;
20671;SDS011;10495;50.922;4.760;2022-09-06T13:16:40;3.38;;;1.70;;
20671;SDS011;10495;50.922;4.760;2022-09-06T13:19:11;3.22;;;1.92;;
20671;SDS011;10495;50.922;4.760;2022-09-06T13:21:40;2.17;;;1.52;;
20671;SDS011;10495;50.922;4.760;2022-09-06T13:26:46;3.17;;;1.90;;
20671;SDS011;10495;50.922;4.760;2022-09-06T13:31:52;3.90;;;1.70;;
20671;SDS011;10495;50.922;4.760;2022-09-06T13:34:29;1.88;;;1.75;;
20671;SDS011;10495;50.922;4.760;2022-09-06T13:37:06;3.35;;;2.00;;
20671;SDS011;10495;50.922;4.760;2022-09-06T13:39:35;1.98;;;1.60;;
20671;SDS011;10495;50.922;4.760;2022-09-06T13:44:30;5.20;;;1.70;;
20671;SDS011;10495;50.922;4.760;2022-09-06T13:46:57;1.70;;;1.60;;
20671;SDS011;10495;50.922;4.760;2022-09-06T13:49:23;3.42;;;1.92;;
20671;SDS011;10495;50.922;4.760;2022-09-06T13:51:50;1.70;;;1.60;;
20671;SDS011;10495;50.922;4.760;2022-09-06T13:54:17;2.63;;;1.50;;
20671;SDS011;10495;50.922;4.760;2022-09-06T13:56:42;2.40;;;1.50;;
20671;SDS011;10495;50.922;4.760;2022-09-06T13:59:12;3.33;;;2.13;;
20671;SDS011;10495;50.922;4.760;2022-09-06T14:01:42;2.25;;;1.38;;
20671;SDS011;10495;50.922;4.760;2022-09-06T14:04:12;1.83;;;1.67;;
20671;SDS011;10495;50.922;4.760;2022-09-06T14:06:45;3.03;;;2.00;;
20671;SDS011;10495;50.922;4.760;2022-09-06T14:09:11;2.58;;;1.65;;
20671;SDS011;10495;50.922;4.760;2022-09-06T14:11:36;3.67;;;1.67;;
20671;SDS011;10495;50.922;4.760;2022-09-06T14:14:03;1.88;;;1.38;;
20671;SDS011;10495;50.922;4.760;2022-09-06T14:16:29;1.58;;;1.27;;
20671;SDS011;10495;50.922;4.760;2022-09-06T14:18:55;1.60;;;1.40;;
20671;SDS011;10495;50.922;4.760;2022-09-06T14:21:21;3.25;;;1.67;;
20671;SDS011;10495;50.922;4.760;2022-09-06T14:23:48;4.05;;;1.65;;
20671;SDS011;10495;50.922;4.760;2022-09-06T14:26:14;1.80;;;1.65;;
20671;SDS011;10495;50.922;4.760;2022-09-06T14:28:40;1.98;;;1.70;;
20671;SDS011;10495;50.922;4.760;2022-09-06T14:31:16;2.58;;;1.65;;
20671;SDS011;10495;50.922;4.760;2022-09-06T14:33:43;2.63;;;1.73;;
20671;SDS011;10495;50.922;4.760;2022-09-06T14:36:10;2.08;;;1.80;;
20671;SDS011;10495;50.922;4.760;2022-09-06T14:38:37;2.33;;;1.42;;
20671;SDS011;10495;50.922;4.760;2022-09-06T14:41:05;3.60;;;1.90;;
20671;SDS011;10495;50.922;4.760;2022-09-06T14:43:32;2.03;;;1.38;;
20671;SDS011;10495;50.922;4.760;2022-09-06T14:46:02;1.67;;;1.58;;
20671;SDS011;10495;50.922;4.760;2022-09-06T14:48:33;1.45;;;1.35;;
20671;SDS011;10495;50.922;4.760;2022-09-06T14:51:05;3.03;;;1.60;;
20671;SDS011;10495;50.922;4.760;2022-09-06T14:53:32;2.05;;;1.35;;
20671;SDS011;10495;50.922;4.760;2022-09-06T14:56:01;3.10;;;1.60;;
20671;SDS011;10495;50.922;4.760;2022-09-06T14:58:29;2.78;;;1.60;;
20671;SDS011;10495;50.922;4.760;2022-09-06T15:01:04;2.92;;;2.17;;
20671;SDS011;10495;50.922;4.760;2022-09-06T15:03:40;1.50;;;1.30;;
20671;SDS011;10495;50.922;4.760;2022-09-06T15:06:07;3.00;;;1.60;;
20671;SDS011;10495;50.922;4.760;2022-09-06T15:08:34;1.67;;;1.40;;
20671;SDS011;10495;50.922;4.760;2022-09-06T15:11:00;1.85;;;1.70;;
20671;SDS011;10495;50.922;4.760;2022-09-06T15:13:27;3.00;;;1.60;;
20671;SDS011;10495;50.922;4.760;2022-09-06T15:15:53;2.78;;;1.50;;
20671;SDS011;10495;50.922;4.760;2022-09-06T15:18:20;2.75;;;1.70;;
20671;SDS011;10495;50.922;4.760;2022-09-06T15:20:45;3.25;;;1.83;;
20671;SDS011;10495;50.922;4.760;2022-09-06T15:23:11;2.92;;;1.52;;
20671;SDS011;10495;50.922;4.760;2022-09-06T15:25:37;1.35;;;1.25;;
20671;SDS011;10495;50.922;4.760;2022-09-06T15:28:09;3.35;;;1.70;;
20671;SDS011;10495;50.922;4.760;2022-09-06T15:30:36;3.13;;;1.65;;
20671;SDS011;10495;50.922;4.760;2022-09-06T15:33:03;2.03;;;1.50;;
20671;SDS011;10495;50.922;4.760;2022-09-06T15:35:28;1.67;;;1.50;;
20671;SDS011;10495;50.922;4.760;2022-09-06T15:37:54;1.40;;;1.30;;
20671;SDS011;10495;50.922;4.760;2022-09-06T15:40:20;2.83;;;1.38;;
20671;SDS011;10495;50.922;4.760;2022-09-06T15:42:45;2.28;;;1.38;;
20671;SDS011;10495;50.922;4.760;2022-09-06T15:45:11;3.35;;;1.42;;
20671;SDS011;10495;50.922;4.760;2022-09-06T15:47:37;1.20;;;1.10;;
20671;SDS011;10495;50.922;4.760;2022-09-06T15:50:04;2.22;;;1.58;;
20671;SDS011;10495;50.922;4.760;2022-09-06T15:52:30;3.42;;;1.50;;
20671;SDS011;10495;50.922;4.760;2022-09-06T15:54:56;1.85;;;1.52;;
20671;SDS011;10495;50.922;4.760;2022-09-06T15:57:40;3.08;;;1.25;;
20671;SDS011;10495;50.922;4.760;2022-09-06T16:00:06;2.40;;;1.40;;
20671;SDS011;10495;50.922;4.760;2022-09-06T16:02:32;1.40;;;1.30;;
20671;SDS011;10495;50.922;4.760;2022-09-06T16:04:57;1.52;;;1.30;;
20671;SDS011;10495;50.922;4.760;2022-09-06T16:07:23;2.17;;;1.40;;
20671;SDS011;10495;50.922;4.760;2022-09-06T16:09:49;2.50;;;1.60;;
20671;SDS011;10495;50.922;4.760;2022-09-06T16:12:15;1.98;;;1.42;;
20671;SDS011;10495;50.922;4.760;2022-09-06T16:14:40;2.35;;;1.65;;
20671;SDS011;10495;50.922;4.760;2022-09-06T16:17:06;1.45;;;1.25;;
20671;SDS011;10495;50.922;4.760;2022-09-06T16:19:32;2.15;;;1.48;;
20671;SDS011;10495;50.922;4.760;2022-09-06T16:21:57;1.45;;;1.35;;
20671;SDS011;10495;50.922;4.760;2022-09-06T16:24:23;2.85;;;1.20;;
20671;SDS011;10495;50.922;4.760;2022-09-06T16:26:49;2.08;;;1.63;;
20671;SDS011;10495;50.922;4.760;2022-09-06T16:29:15;2.47;;;1.63;;
20671;SDS011;10495;50.922;4.760;2022-09-06T16:31:42;1.95;;;1.63;;
20671;SDS011;10495;50.922;4.760;2022-09-06T16:34:08;1.95;;;1.50;;
20671;SDS011;10495;50.922;4.760;2022-09-06T16:36:35;1.40;;;1.30;;
20671;SDS011;10495;50.922;4.760;2022-09-06T16:39:01;2.22;;;1.90;;
20671;SDS011;10495;50.922;4.760;2022-09-06T16:41:43;1.40;;;1.30;;
20671;SDS011;10495;50.922;4.760;2022-09-06T16:44:11;2.60;;;1.67;;
20671;SDS011;10495;50.922;4.760;2022-09-06T16:46:40;2.67;;;1.67;;
20671;SDS011;10495;50.922;4.760;2022-09-06T16:49:06;2.65;;;1.80;;
20671;SDS011;10495;50.922;4.760;2022-09-06T16:51:32;3.58;;;2.60;;
20671;SDS011;10495;50.922;4.760;2022-09-06T16:53:58;2.70;;;1.95;;
20671;SDS011;10495;50.922;4.760;2022-09-06T16:56:25;3.72;;;2.63;;
20671;SDS011;10495;50.922;4.760;2022-09-06T16:58:53;1.77;;;1.65;;